Flugplatz Beilngries (EDNC)

Hier findest Du alle Informationen zum Flugplatz Beilngries (EDNC).

Informationen für Piloten zum Flugplatz Beilngries

Hier findest Du alle relevanten Informationen, die Du als Pilot benötigst, um Beilngries anzufliegen.

Flugplatz: Beilngries ICAO-Code: EDNC
Frequenz Turm: 118,350 Mhz GAFOR Gebiet: 63
Frequenz Ground: 118,350 Mhz Mogas: ja
Platzrunde: N 2800 ft Landegebühr: -
Platzhöhe: - Sunrise: 04:56 Uhr UTC
Pisten: 10/28 - 600 m x 25 m, GRAS Sunset: 17:41 Uhr UTC

Flugwetter am Flugplatz Beilngries

Die METAR Information stammen aus EDDN (60.75 km entfernt).

METAR Code:
2023/03/06 08:50
EDDN 060850Z AUTO 24006KT 200V260 9999 SCT027 03/M02 Q1006 NOSIG

Flugschulen am Flugplatz Beilngries

Am Flugplatz Beilngries gibt es eine Flugschule.

Benachbarte Flugplätze und Flugschulen

Es gibt 16 weitere Flugplätze in einem Umkreis von 50 km um den Flugplatz Beilngries.

Jetzt anmelden

Passwort vergessen

Umfrage Archiv

Sendet Ihr ADS-B und/oder FLARM?

Ja
83.7 %
Nein
16.3 %
Stimmen: 313 | Diskussion
Anzeige: Roland Aircraft
Statistik Alle Mitglieder

Aktuell sind 70 Besucher online, davon 1 Mitglied und 69 Gäste.


Mitglieder online:
Steffen_E 

Anzeige: EasyVFR